sensor_id;sensor_type;location;lat;lon;timestamp;pressure;altitude;pressure_sealevel;temperature
78369;BMP280;71113;43.092;-89.268;2024-03-06T00:02:24;98367.53;;;15.86
78369;BMP280;71113;43.092;-89.268;2024-03-06T00:04:50;98371.72;;;15.87
78369;BMP280;71113;43.092;-89.268;2024-03-06T00:07:16;98366.47;;;15.87
78369;BMP280;71113;43.092;-89.268;2024-03-06T00:09:42;98366.75;;;15.85
78369;BMP280;71113;43.092;-89.268;2024-03-06T00:12:08;98346.00;;;15.84
78369;BMP280;71113;43.092;-89.268;2024-03-06T00:14:35;98354.97;;;15.83
78369;BMP280;71113;43.092;-89.268;2024-03-06T00:17:02;98348.16;;;15.82
78369;BMP280;71113;43.092;-89.268;2024-03-06T00:19:32;98358.69;;;15.82
78369;BMP280;71113;43.092;-89.268;2024-03-06T00:21:59;98353.44;;;15.82
78369;BMP280;71113;43.092;-89.268;2024-03-06T00:24:25;98352.66;;;15.81
78369;BMP280;71113;43.092;-89.268;2024-03-06T00:26:51;98360.81;;;15.80
78369;BMP280;71113;43.092;-89.268;2024-03-06T00:29:16;98347.66;;;15.80
78369;BMP280;71113;43.092;-89.268;2024-03-06T00:31:43;98344.25;;;15.79
78369;BMP280;71113;43.092;-89.268;2024-03-06T00:34:10;98355.53;;;15.80
78369;BMP280;71113;43.092;-89.268;2024-03-06T00:36:37;98356.31;;;15.80
78369;BMP280;71113;43.092;-89.268;2024-03-06T00:39:03;98352.91;;;15.80
78369;BMP280;71113;43.092;-89.268;2024-03-06T00:41:30;98365.28;;;15.79
78369;BMP280;71113;43.092;-89.268;2024-03-06T00:43:56;98358.78;;;15.77
78369;BMP280;71113;43.092;-89.268;2024-03-06T00:46:23;98364.06;;;15.77
78369;BMP280;71113;43.092;-89.268;2024-03-06T00:48:49;98356.16;;;15.77
78369;BMP280;71113;43.092;-89.268;2024-03-06T00:51:15;98357.72;;;15.78
78369;BMP280;71113;43.092;-89.268;2024-03-06T00:53:40;98355.34;;;15.76
78369;BMP280;71113;43.092;-89.268;2024-03-06T00:56:07;98356.72;;;15.74
78369;BMP280;71113;43.092;-89.268;2024-03-06T00:58:33;98356.44;;;15.75
78369;BMP280;71113;43.092;-89.268;2024-03-06T01:00:59;98355.66;;;15.75
78369;BMP280;71113;43.092;-89.268;2024-03-06T01:03:25;98348.53;;;15.75
78369;BMP280;71113;43.092;-89.268;2024-03-06T01:05:51;98353.81;;;15.75
78369;BMP280;71113;43.092;-89.268;2024-03-06T01:08:23;98348.53;;;15.75
78369;BMP280;71113;43.092;-89.268;2024-03-06T01:10:53;98353.53;;;15.77
78369;BMP280;71113;43.092;-89.268;2024-03-06T01:13:20;98349.31;;;15.76
78369;BMP280;71113;43.092;-89.268;2024-03-06T01:15:46;98351.47;;;15.74
78369;BMP280;71113;43.092;-89.268;2024-03-06T01:18:12;98346.97;;;15.74
78369;BMP280;71113;43.092;-89.268;2024-03-06T01:20:38;98349.31;;;15.76
78369;BMP280;71113;43.092;-89.268;2024-03-06T01:23:05;98349.31;;;15.76
78369;BMP280;71113;43.092;-89.268;2024-03-06T01:25:32;98352.25;;;15.74
78369;BMP280;71113;43.092;-89.268;2024-03-06T01:28:18;98354.56;;;15.76
78369;BMP280;71113;43.092;-89.268;2024-03-06T01:30:44;98361.88;;;15.79
78369;BMP280;71113;43.092;-89.268;2024-03-06T01:33:10;98370.75;;;15.83
78369;BMP280;71113;43.092;-89.268;2024-03-06T01:35:36;98367.06;;;15.84
78369;BMP280;71113;43.092;-89.268;2024-03-06T01:38:02;98375.44;;;15.86
78369;BMP280;71113;43.092;-89.268;2024-03-06T01:40:28;98384.28;;;15.90
78369;BMP280;71113;43.092;-89.268;2024-03-06T01:42:55;98380.03;;;15.94
78369;BMP280;71113;43.092;-89.268;2024-03-06T01:45:21;98381.56;;;15.95
78369;BMP280;71113;43.092;-89.268;2024-03-06T01:48:08;98381.50;;;16.00
78369;BMP280;71113;43.092;-89.268;2024-03-06T01:50:34;98380.81;;;16.08
78369;BMP280;71113;43.092;-89.268;2024-03-06T01:53:00;98386.53;;;16.10
78369;BMP280;71113;43.092;-89.268;2024-03-06T01:55:27;98388.59;;;16.13
78369;BMP280;71113;43.092;-89.268;2024-03-06T01:57:53;98386.91;;;16.18
78369;BMP280;71113;43.092;-89.268;2024-03-06T02:00:19;98386.03;;;16.22
78369;BMP280;71113;43.092;-89.268;2024-03-06T02:02:46;98394.13;;;16.26
78369;BMP280;71113;43.092;-89.268;2024-03-06T02:05:12;98380.69;;;16.27
78369;BMP280;71113;43.092;-89.268;2024-03-06T02:07:39;98388.47;;;16.32
78369;BMP280;71113;43.092;-89.268;2024-03-06T02:10:08;98384.94;;;16.37
78369;BMP280;71113;43.092;-89.268;2024-03-06T02:12:36;98384.34;;;16.40
78369;BMP280;71113;43.092;-89.268;2024-03-06T02:15:03;98394.31;;;16.43
78369;BMP280;71113;43.092;-89.268;2024-03-06T02:17:29;98386.88;;;16.45
78369;BMP280;71113;43.092;-89.268;2024-03-06T02:19:56;98402.28;;;16.52
78369;BMP280;71113;43.092;-89.268;2024-03-06T02:22:23;98397.78;;;16.52
78369;BMP280;71113;43.092;-89.268;2024-03-06T02:24:50;98406.16;;;16.54
78369;BMP280;71113;43.092;-89.268;2024-03-06T02:27:16;98410.84;;;16.57
78369;BMP280;71113;43.092;-89.268;2024-03-06T02:29:42;98425.78;;;16.62
78369;BMP280;71113;43.092;-89.268;2024-03-06T02:32:11;98427.59;;;16.61
78369;BMP280;71113;43.092;-89.268;2024-03-06T02:34:38;98423.91;;;16.62
78369;BMP280;71113;43.092;-89.268;2024-03-06T02:37:04;98421.75;;;16.64
78369;BMP280;71113;43.092;-89.268;2024-03-06T02:39:30;98430.41;;;16.65
78369;BMP280;71113;43.092;-89.268;2024-03-06T02:41:56;98429.97;;;16.63
78369;BMP280;71113;43.092;-89.268;2024-03-06T02:44:22;98433.38;;;16.63
78369;BMP280;71113;43.092;-89.268;2024-03-06T02:46:49;98427.59;;;16.61
78369;BMP280;71113;43.092;-89.268;2024-03-06T02:49:16;98434.72;;;16.61
78369;BMP280;71113;43.092;-89.268;2024-03-06T02:51:42;98438.13;;;16.61
78369;BMP280;71113;43.092;-89.268;2024-03-06T02:54:08;98447.09;;;16.60
78369;BMP280;71113;43.092;-89.268;2024-03-06T02:56:34;98444.47;;;16.60
78369;BMP280;71113;43.092;-89.268;2024-03-06T02:59:00;98442.63;;;16.61
78369;BMP280;71113;43.092;-89.268;2024-03-06T03:01:28;98447.09;;;16.60
78369;BMP280;71113;43.092;-89.268;2024-03-06T03:03:55;98451.59;;;16.60
78369;BMP280;71113;43.092;-89.268;2024-03-06T03:06:21;98454.56;;;16.58
78369;BMP280;71113;43.092;-89.268;2024-03-06T03:08:49;98460.59;;;16.59
78369;BMP280;71113;43.092;-89.268;2024-03-06T03:11:15;98459.03;;;16.58
78369;BMP280;71113;43.092;-89.268;2024-03-06T03:13:42;98467.72;;;16.58
78369;BMP280;71113;43.092;-89.268;2024-03-06T03:16:16;98463.50;;;16.57
78369;BMP280;71113;43.092;-89.268;2024-03-06T03:18:43;98463.50;;;16.57
78369;BMP280;71113;43.092;-89.268;2024-03-06T03:21:09;98467.22;;;16.56
78369;BMP280;71113;43.092;-89.268;2024-03-06T03:23:39;98474.63;;;16.54
78369;BMP280;71113;43.092;-89.268;2024-03-06T03:26:08;98474.63;;;16.54
78369;BMP280;71113;43.092;-89.268;2024-03-06T03:28:38;98485.47;;;16.53
78369;BMP280;71113;43.092;-89.268;2024-03-06T03:31:07;98484.69;;;16.52
78369;BMP280;71113;43.092;-89.268;2024-03-06T03:33:35;98482.06;;;16.52
78369;BMP280;71113;43.092;-89.268;2024-03-06T03:36:05;98496.28;;;16.51
78369;BMP280;71113;43.092;-89.268;2024-03-06T03:38:33;98497.84;;;16.52
78369;BMP280;71113;43.092;-89.268;2024-03-06T03:41:01;98495.09;;;16.57
78369;BMP280;71113;43.092;-89.268;2024-03-06T03:43:29;98493.34;;;16.66
78369;BMP280;71113;43.092;-89.268;2024-03-06T03:45:56;98486.28;;;16.75
78369;BMP280;71113;43.092;-89.268;2024-03-06T03:48:22;98495.06;;;16.85
78369;BMP280;71113;43.092;-89.268;2024-03-06T03:50:48;98498.06;;;16.92
78369;BMP280;71113;43.092;-89.268;2024-03-06T03:53:14;98492.09;;;17.00
78369;BMP280;71113;43.092;-89.268;2024-03-06T03:55:41;98491.69;;;17.07
78369;BMP280;71113;43.092;-89.268;2024-03-06T03:58:07;98488.16;;;17.11
78369;BMP280;71113;43.092;-89.268;2024-03-06T04:00:33;98486.97;;;17.17
78369;BMP280;71113;43.092;-89.268;2024-03-06T04:02:59;98492.44;;;17.21
78369;BMP280;71113;43.092;-89.268;2024-03-06T04:05:25;98480.44;;;17.15
78369;BMP280;71113;43.092;-89.268;2024-03-06T04:07:51;98474.78;;;17.08
78369;BMP280;71113;43.092;-89.268;2024-03-06T04:10:17;98472.28;;;17.02
78369;BMP280;71113;43.092;-89.268;2024-03-06T04:12:44;98469.66;;;17.02
78369;BMP280;71113;43.092;-89.268;2024-03-06T04:15:10;98468.38;;;17.00
78369;BMP280;71113;43.092;-89.268;2024-03-06T04:17:56;98472.88;;;16.99
78369;BMP280;71113;43.092;-89.268;2024-03-06T04:20:40;98482.16;;;16.97
78369;BMP280;71113;43.092;-89.268;2024-03-06T04:23:07;98473.19;;;16.98
78369;BMP280;71113;43.092;-89.268;2024-03-06T04:25:33;98470.03;;;16.96
78369;BMP280;71113;43.092;-89.268;2024-03-06T04:27:59;98481.69;;;16.95
78369;BMP280;71113;43.092;-89.268;2024-03-06T04:30:24;98481.69;;;16.95
78369;BMP280;71113;43.092;-89.268;2024-03-06T04:32:50;98480.59;;;16.96
78369;BMP280;71113;43.092;-89.268;2024-03-06T04:35:16;98482.00;;;16.93
78369;BMP280;71113;43.092;-89.268;2024-03-06T04:37:42;98467.75;;;16.94
78369;BMP280;71113;43.092;-89.268;2024-03-06T04:40:09;98474.09;;;16.93
78369;BMP280;71113;43.092;-89.268;2024-03-06T04:42:36;98480.41;;;16.92
78369;BMP280;71113;43.092;-89.268;2024-03-06T04:45:19;98477.28;;;16.90
78369;BMP280;71113;43.092;-89.268;2024-03-06T04:47:45;98480.25;;;16.89
78369;BMP280;71113;43.092;-89.268;2024-03-06T04:50:12;98471.84;;;16.87
78369;BMP280;71113;43.092;-89.268;2024-03-06T04:52:40;98467.84;;;16.89
78369;BMP280;71113;43.092;-89.268;2024-03-06T04:55:07;98463.47;;;16.85
78369;BMP280;71113;43.092;-89.268;2024-03-06T04:57:36;98461.31;;;16.87
78369;BMP280;71113;43.092;-89.268;2024-03-06T05:00:03;98463.47;;;16.85
78369;BMP280;71113;43.092;-89.268;2024-03-06T05:02:33;98462.19;;;16.82
78369;BMP280;71113;43.092;-89.268;2024-03-06T05:05:03;98466.38;;;16.83
78369;BMP280;71113;43.092;-89.268;2024-03-06T05:07:30;98472.22;;;16.80
78369;BMP280;71113;43.092;-89.268;2024-03-06T05:09:57;98472.56;;;16.79
78369;BMP280;71113;43.092;-89.268;2024-03-06T05:12:27;98472.56;;;16.79
78369;BMP280;71113;43.092;-89.268;2024-03-06T05:14:54;98475.19;;;16.79
78369;BMP280;71113;43.092;-89.268;2024-03-06T05:17:20;98462.47;;;16.81
78369;BMP280;71113;43.092;-89.268;2024-03-06T05:19:47;98465.44;;;16.79
78369;BMP280;71113;43.092;-89.268;2024-03-06T05:22:13;98463.56;;;16.80
78369;BMP280;71113;43.092;-89.268;2024-03-06T05:24:40;98465.22;;;16.75
78369;BMP280;71113;43.092;-89.268;2024-03-06T05:27:06;98464.16;;;16.77
78369;BMP280;71113;43.092;-89.268;2024-03-06T05:29:32;98470.50;;;16.75
78369;BMP280;71113;43.092;-89.268;2024-03-06T05:31:58;98476.53;;;16.76
78369;BMP280;71113;43.092;-89.268;2024-03-06T05:34:24;98476.34;;;16.72
78369;BMP280;71113;43.092;-89.268;2024-03-06T05:36:50;98467.97;;;16.70
78369;BMP280;71113;43.092;-89.268;2024-03-06T05:39:16;98474.81;;;16.71
78369;BMP280;71113;43.092;-89.268;2024-03-06T05:41:43;98485.34;;;16.71
78369;BMP280;71113;43.092;-89.268;2024-03-06T05:44:10;98495.88;;;16.71
78369;BMP280;71113;43.092;-89.268;2024-03-06T05:46:36;98493.53;;;16.70
78369;BMP280;71113;43.092;-89.268;2024-03-06T05:49:02;98495.41;;;16.69
78369;BMP280;71113;43.092;-89.268;2024-03-06T05:51:29;98493.34;;;16.66
78369;BMP280;71113;43.092;-89.268;2024-03-06T05:53:56;98498.63;;;16.66
78369;BMP280;71113;43.092;-89.268;2024-03-06T05:56:22;98499.66;;;16.65
78369;BMP280;71113;43.092;-89.268;2024-03-06T05:58:48;98495.50;;;16.64
78369;BMP280;71113;43.092;-89.268;2024-03-06T06:01:18;98498.88;;;16.65
78369;BMP280;71113;43.092;-89.268;2024-03-06T06:03:50;98505.56;;;16.62
78369;BMP280;71113;43.092;-89.268;2024-03-06T06:06:16;98509.75;;;16.63
78369;BMP280;71113;43.092;-89.268;2024-03-06T06:08:42;98505.81;;;16.61
78369;BMP280;71113;43.092;-89.268;2024-03-06T06:11:10;98508.47;;;16.61
78369;BMP280;71113;43.092;-89.268;2024-03-06T06:13:36;98496.69;;;16.58
78369;BMP280;71113;43.092;-89.268;2024-03-06T06:16:02;98485.34;;;16.58
78369;BMP280;71113;43.092;-89.268;2024-03-06T06:18:28;98491.44;;;16.58
78369;BMP280;71113;43.092;-89.268;2024-03-06T06:20:54;98488.28;;;16.56
78369;BMP280;71113;43.092;-89.268;2024-03-06T06:23:20;98484.09;;;16.55
78369;BMP280;71113;43.092;-89.268;2024-03-06T06:25:46;98493.38;;;16.53
78369;BMP280;71113;43.092;-89.268;2024-03-06T06:28:12;98483.59;;;16.53
78369;BMP280;71113;43.092;-89.268;2024-03-06T06:30:38;98482.06;;;16.52
78369;BMP280;71113;43.092;-89.268;2024-03-06T06:33:04;98489.66;;;16.54
78369;BMP280;71113;43.092;-89.268;2024-03-06T06:35:31;98496.47;;;16.55
78369;BMP280;71113;43.092;-89.268;2024-03-06T06:37:56;98491.50;;;16.53
78369;BMP280;71113;43.092;-89.268;2024-03-06T06:40:23;98498.94;;;16.51
78369;BMP280;71113;43.092;-89.268;2024-03-06T06:42:49;98492.38;;;16.49
78369;BMP280;71113;43.092;-89.268;2024-03-06T06:45:16;98500.59;;;16.47
78369;BMP280;71113;43.092;-89.268;2024-03-06T06:47:42;98498.22;;;16.45
78369;BMP280;71113;43.092;-89.268;2024-03-06T06:50:08;98488.47;;;16.46
78369;BMP280;71113;43.092;-89.268;2024-03-06T06:52:35;98490.63;;;16.44
78369;BMP280;71113;43.092;-89.268;2024-03-06T06:55:01;98489.84;;;16.43
78369;BMP280;71113;43.092;-89.268;2024-03-06T06:57:27;98490.16;;;16.42
78369;BMP280;71113;43.092;-89.268;2024-03-06T06:59:53;98490.44;;;16.40
78369;BMP280;71113;43.092;-89.268;2024-03-06T07:02:19;98484.41;;;16.40
78369;BMP280;71113;43.092;-89.268;2024-03-06T07:04:45;98486.72;;;16.41
78369;BMP280;71113;43.092;-89.268;2024-03-06T07:07:11;98491.81;;;16.38
78369;BMP280;71113;43.092;-89.268;2024-03-06T07:09:37;98485.97;;;16.41
78369;BMP280;71113;43.092;-89.268;2024-03-06T07:12:03;98492.78;;;16.42
78369;BMP280;71113;43.092;-89.268;2024-03-06T07:14:30;98482.03;;;16.38
78369;BMP280;71113;43.092;-89.268;2024-03-06T07:16:56;98489.66;;;16.40
78369;BMP280;71113;43.092;-89.268;2024-03-06T07:19:21;98488.09;;;16.39
78369;BMP280;71113;43.092;-89.268;2024-03-06T07:21:47;98479.72;;;16.37
78369;BMP280;71113;43.092;-89.268;2024-03-06T07:24:13;98473.97;;;16.35
78369;BMP280;71113;43.092;-89.268;2024-03-06T07:26:39;98481.88;;;16.35
78369;BMP280;71113;43.092;-89.268;2024-03-06T07:29:05;98478.72;;;16.33
78369;BMP280;71113;43.092;-89.268;2024-03-06T07:31:39;98476.41;;;16.31
78369;BMP280;71113;43.092;-89.268;2024-03-06T07:34:07;98481.34;;;16.33
78369;BMP280;71113;43.092;-89.268;2024-03-06T07:36:34;98478.72;;;16.33
78369;BMP280;71113;43.092;-89.268;2024-03-06T07:39:01;98481.69;;;16.31
78369;BMP280;71113;43.092;-89.268;2024-03-06T07:41:28;98479.91;;;16.27
78369;BMP280;71113;43.092;-89.268;2024-03-06T07:44:14;98485.97;;;16.27
78369;BMP280;71113;43.092;-89.268;2024-03-06T07:46:40;98483.91;;;16.24
78369;BMP280;71113;43.092;-89.268;2024-03-06T07:49:05;98495.50;;;16.23
78369;BMP280;71113;43.092;-89.268;2024-03-06T07:51:32;98490.25;;;16.23
78369;BMP280;71113;43.092;-89.268;2024-03-06T07:53:58;98494.44;;;16.24
78369;BMP280;71113;43.092;-89.268;2024-03-06T07:56:25;98483.91;;;16.24
78369;BMP280;71113;43.092;-89.268;2024-03-06T07:58:51;98481.09;;;16.21
78369;BMP280;71113;43.092;-89.268;2024-03-06T08:01:17;98488.22;;;16.20
78369;BMP280;71113;43.092;-89.268;2024-03-06T08:03:43;98470.03;;;16.19
78369;BMP280;71113;43.092;-89.268;2024-03-06T08:06:09;98468.19;;;16.19
78369;BMP280;71113;43.092;-89.268;2024-03-06T08:08:36;98467.16;;;16.20
78369;BMP280;71113;43.092;-89.268;2024-03-06T08:11:02;98469.00;;;16.20
78369;BMP280;71113;43.092;-89.268;2024-03-06T08:13:29;98473.75;;;16.18
78369;BMP280;71113;43.092;-89.268;2024-03-06T08:15:55;98476.38;;;16.18
78369;BMP280;71113;43.092;-89.268;2024-03-06T08:18:21;98462.78;;;16.16
78369;BMP280;71113;43.092;-89.268;2024-03-06T08:20:46;98470.94;;;16.14
78369;BMP280;71113;43.092;-89.268;2024-03-06T08:23:12;98464.13;;;16.13
78369;BMP280;71113;43.092;-89.268;2024-03-06T08:25:38;98474.16;;;16.11
78369;BMP280;71113;43.092;-89.268;2024-03-06T08:28:04;98474.91;;;16.11
78369;BMP280;71113;43.092;-89.268;2024-03-06T08:30:33;98474.44;;;16.09
78369;BMP280;71113;43.092;-89.268;2024-03-06T08:33:19;98471.53;;;16.11
78369;BMP280;71113;43.092;-89.268;2024-03-06T08:35:46;98479.59;;;16.14
78369;BMP280;71113;43.092;-89.268;2024-03-06T08:38:12;98488.06;;;16.11
78369;BMP280;71113;43.092;-89.268;2024-03-06T08:40:38;98493.31;;;16.11
78369;BMP280;71113;43.092;-89.268;2024-03-06T08:43:04;98497.63;;;16.07
78369;BMP280;71113;43.092;-89.268;2024-03-06T08:45:30;98493.94;;;16.08
78369;BMP280;71113;43.092;-89.268;2024-03-06T08:47:56;98488.69;;;16.08
78369;BMP280;71113;43.092;-89.268;2024-03-06T08:50:22;98496.84;;;16.07
78369;BMP280;71113;43.092;-89.268;2024-03-06T08:52:48;98496.56;;;16.08
78369;BMP280;71113;43.092;-89.268;2024-03-06T08:55:14;98490.34;;;16.04
78369;BMP280;71113;43.092;-89.268;2024-03-06T08:57:40;98492.97;;;16.04
78369;BMP280;71113;43.092;-89.268;2024-03-06T09:00:07;98498.22;;;16.04
78369;BMP280;71113;43.092;-89.268;2024-03-06T09:02:37;98496.66;;;16.03
78369;BMP280;71113;43.092;-89.268;2024-03-06T09:05:07;98492.19;;;16.04
78369;BMP280;71113;43.092;-89.268;2024-03-06T09:10:04;98498.78;;;16.01
78369;BMP280;71113;43.092;-89.268;2024-03-06T09:12:31;98498.78;;;16.01
78369;BMP280;71113;43.092;-89.268;2024-03-06T09:14:57;98503.28;;;16.01
78369;BMP280;71113;43.092;-89.268;2024-03-06T09:17:23;98505.91;;;16.01
78369;BMP280;71113;43.092;-89.268;2024-03-06T09:19:49;98504.06;;;16.01
78369;BMP280;71113;43.092;-89.268;2024-03-06T09:22:14;98498.59;;;15.98
78369;BMP280;71113;43.092;-89.268;2024-03-06T09:24:40;98506.50;;;15.98
78369;BMP280;71113;43.092;-89.268;2024-03-06T09:27:06;98506.78;;;15.96
78369;BMP280;71113;43.092;-89.268;2024-03-06T09:29:32;98513.59;;;15.97
78369;BMP280;71113;43.092;-89.268;2024-03-06T09:31:58;98510.44;;;15.95
78369;BMP280;71113;43.092;-89.268;2024-03-06T09:34:24;98510.00;;;15.93
78369;BMP280;71113;43.092;-89.268;2024-03-06T09:36:50;98510.44;;;15.95
78369;BMP280;71113;43.092;-89.268;2024-03-06T09:39:17;98511.56;;;15.94
78369;BMP280;71113;43.092;-89.268;2024-03-06T09:41:51;98516.03;;;15.94
78369;BMP280;71113;43.092;-89.268;2024-03-06T09:44:18;98510.56;;;15.90
78369;BMP280;71113;43.092;-89.268;2024-03-06T09:46:47;98515.81;;;15.90
78369;BMP280;71113;43.092;-89.268;2024-03-06T09:49:16;98515.03;;;15.90
78369;BMP280;71113;43.092;-89.268;2024-03-06T09:51:47;98521.84;;;15.91
78369;BMP280;71113;43.092;-89.268;2024-03-06T09:54:16;98516.13;;;15.89
78369;BMP280;71113;43.092;-89.268;2024-03-06T09:56:44;98525.84;;;15.88
78369;BMP280;71113;43.092;-89.268;2024-03-06T09:59:11;98531.41;;;15.87
78369;BMP280;71113;43.092;-89.268;2024-03-06T10:06:48;98526.13;;;15.87
78369;BMP280;71113;43.092;-89.268;2024-03-06T10:09:18;98523.50;;;15.87
78369;BMP280;71113;43.092;-89.268;2024-03-06T10:11:45;98521.47;;;15.83
78369;BMP280;71113;43.092;-89.268;2024-03-06T10:14:12;98523.31;;;15.83
78369;BMP280;71113;43.092;-89.268;2024-03-06T10:16:51;98512.78;;;15.83
78369;BMP280;71113;43.092;-89.268;2024-03-06T10:19:18;98524.38;;;15.82
78369;BMP280;71113;43.092;-89.268;2024-03-06T10:21:48;98525.16;;;15.82
78369;BMP280;71113;43.092;-89.268;2024-03-06T10:24:21;98535.16;;;15.80
78369;BMP280;71113;43.092;-89.268;2024-03-06T10:26:49;98531.28;;;15.78
78369;BMP280;71113;43.092;-89.268;2024-03-06T10:29:17;98535.16;;;15.80
78369;BMP280;71113;43.092;-89.268;2024-03-06T10:32:02;98529.75;;;15.77
78369;BMP280;71113;43.092;-89.268;2024-03-06T10:34:28;98536.56;;;15.78
78369;BMP280;71113;43.092;-89.268;2024-03-06T10:37:02;98553.31;;;15.82
78369;BMP280;71113;43.092;-89.268;2024-03-06T10:39:35;98545.69;;;15.80
78369;BMP280;71113;43.092;-89.268;2024-03-06T10:42:07;98545.97;;;15.79
78369;BMP280;71113;43.092;-89.268;2024-03-06T10:44:34;98559.44;;;15.77
78369;BMP280;71113;43.092;-89.268;2024-03-06T10:47:05;98561.28;;;15.77
78369;BMP280;71113;43.092;-89.268;2024-03-06T10:49:32;98560.78;;;15.75
78369;BMP280;71113;43.092;-89.268;2024-03-06T10:52:01;98560.78;;;15.75
78369;BMP280;71113;43.092;-89.268;2024-03-06T10:54:28;98571.59;;;15.73
78369;BMP280;71113;43.092;-89.268;2024-03-06T10:56:55;98574.50;;;15.72
78369;BMP280;71113;43.092;-89.268;2024-03-06T10:59:26;98569.00;;;15.68
78369;BMP280;71113;43.092;-89.268;2024-03-06T11:01:57;98572.75;;;15.67
78369;BMP280;71113;43.092;-89.268;2024-03-06T11:04:25;98571.66;;;15.68
78369;BMP280;71113;43.092;-89.268;2024-03-06T11:06:51;98576.25;;;15.76
78369;BMP280;71113;43.092;-89.268;2024-03-06T11:09:18;98576.31;;;15.90
78369;BMP280;71113;43.092;-89.268;2024-03-06T11:11:51;98589.72;;;16.07
78369;BMP280;71113;43.092;-89.268;2024-03-06T11:14:18;98588.06;;;16.11
78369;BMP280;71113;43.092;-89.268;2024-03-06T11:16:57;98578.34;;;16.12
78369;BMP280;71113;43.092;-89.268;2024-03-06T11:19:24;98582.69;;;16.03
78369;BMP280;71113;43.092;-89.268;2024-03-06T11:21:49;98582.19;;;16.01
78369;BMP280;71113;43.092;-89.268;2024-03-06T11:24:22;98588.81;;;15.98
78369;BMP280;71113;43.092;-89.268;2024-03-06T11:26:50;98586.19;;;15.98
78369;BMP280;71113;43.092;-89.268;2024-03-06T11:29:17;98591.97;;;16.00
78369;BMP280;71113;43.092;-89.268;2024-03-06T11:32:06;98590.69;;;16.11
78369;BMP280;71113;43.092;-89.268;2024-03-06T11:34:36;98592.09;;;16.23
78369;BMP280;71113;43.092;-89.268;2024-03-06T11:37:05;98598.75;;;16.34
78369;BMP280;71113;43.092;-89.268;2024-03-06T11:39:37;98597.03;;;16.43
78369;BMP280;71113;43.092;-89.268;2024-03-06T11:42:04;98590.00;;;16.52
78369;BMP280;71113;43.092;-89.268;2024-03-06T11:44:34;98610.41;;;16.60
78369;BMP280;71113;43.092;-89.268;2024-03-06T11:47:04;98607.38;;;16.67
78369;BMP280;71113;43.092;-89.268;2024-03-06T11:49:32;98610.69;;;16.72
78369;BMP280;71113;43.092;-89.268;2024-03-06T11:52:07;98615.25;;;16.81
78369;BMP280;71113;43.092;-89.268;2024-03-06T11:54:34;98610.41;;;16.88
78369;BMP280;71113;43.092;-89.268;2024-03-06T11:57:02;98613.75;;;16.93
78369;BMP280;71113;43.092;-89.268;2024-03-06T11:59:35;98622.91;;;16.82
78369;BMP280;71113;43.092;-89.268;2024-03-06T12:02:04;98627.78;;;16.75
78369;BMP280;71113;43.092;-89.268;2024-03-06T12:04:32;98624.28;;;16.80
78369;BMP280;71113;43.092;-89.268;2024-03-06T12:07:05;98617.72;;;16.91
78369;BMP280;71113;43.092;-89.268;2024-03-06T12:09:32;98611.78;;;16.99
78369;BMP280;71113;43.092;-89.268;2024-03-06T12:12:07;98620.44;;;17.13
78369;BMP280;71113;43.092;-89.268;2024-03-06T12:14:35;98617.44;;;17.20
78369;BMP280;71113;43.092;-89.268;2024-03-06T12:17:01;98616.22;;;17.26
78369;BMP280;71113;43.092;-89.268;2024-03-06T12:19:35;98624.63;;;17.28
78369;BMP280;71113;43.092;-89.268;2024-03-06T12:22:02;98618.00;;;17.17
78369;BMP280;71113;43.092;-89.268;2024-03-06T12:24:30;98622.19;;;17.04
78369;BMP280;71113;43.092;-89.268;2024-03-06T12:27:03;98624.66;;;17.00
78369;BMP280;71113;43.092;-89.268;2024-03-06T12:29:31;98627.59;;;16.99
78369;BMP280;71113;43.092;-89.268;2024-03-06T12:32:03;98623.88;;;17.00
78369;BMP280;71113;43.092;-89.268;2024-03-06T12:34:31;98627.59;;;16.99
78369;BMP280;71113;43.092;-89.268;2024-03-06T12:37:07;98629.44;;;16.98
78369;BMP280;71113;43.092;-89.268;2024-03-06T12:39:33;98638.13;;;16.99
78369;BMP280;71113;43.092;-89.268;2024-03-06T12:41:59;98638.41;;;16.97
78369;BMP280;71113;43.092;-89.268;2024-03-06T12:44:25;98637.91;;;16.95
78369;BMP280;71113;43.092;-89.268;2024-03-06T12:46:50;98637.91;;;16.95
78369;BMP280;71113;43.092;-89.268;2024-03-06T12:49:16;98641.06;;;16.97
78369;BMP280;71113;43.092;-89.268;2024-03-06T12:51:44;98642.31;;;17.00
78369;BMP280;71113;43.092;-89.268;2024-03-06T12:54:10;98644.38;;;17.03
78369;BMP280;71113;43.092;-89.268;2024-03-06T12:56:35;98649.38;;;17.04
78369;BMP280;71113;43.092;-89.268;2024-03-06T12:59:01;98638.50;;;17.06
78369;BMP280;71113;43.092;-89.268;2024-03-06T13:01:28;98639.50;;;17.10
78369;BMP280;71113;43.092;-89.268;2024-03-06T13:03:54;98639.97;;;17.12
78369;BMP280;71113;43.092;-89.268;2024-03-06T13:06:21;98642.19;;;17.19
78369;BMP280;71113;43.092;-89.268;2024-03-06T13:08:47;98647.84;;;17.26
78369;BMP280;71113;43.092;-89.268;2024-03-06T13:11:13;98648.53;;;17.31
78369;BMP280;71113;43.092;-89.268;2024-03-06T13:13:39;98649.22;;;17.37
78369;BMP280;71113;43.092;-89.268;2024-03-06T13:16:05;98644.63;;;17.43
78369;BMP280;71113;43.092;-89.268;2024-03-06T13:18:31;98643.13;;;17.50
78369;BMP280;71113;43.092;-89.268;2024-03-06T13:20:57;98641.94;;;17.56
78369;BMP280;71113;43.092;-89.268;2024-03-06T13:23:26;98637.34;;;17.62
78369;BMP280;71113;43.092;-89.268;2024-03-06T13:25:52;98641.59;;;17.72
78369;BMP280;71113;43.092;-89.268;2024-03-06T13:28:17;98639.91;;;17.76
78369;BMP280;71113;43.092;-89.268;2024-03-06T13:30:45;98629.56;;;17.79
78369;BMP280;71113;43.092;-89.268;2024-03-06T13:33:11;98640.28;;;17.83
78369;BMP280;71113;43.092;-89.268;2024-03-06T13:35:37;98646.53;;;17.87
78369;BMP280;71113;43.092;-89.268;2024-03-06T13:38:03;98653.09;;;17.89
78369;BMP280;71113;43.092;-89.268;2024-03-06T13:40:29;98654.31;;;17.92
78369;BMP280;71113;43.092;-89.268;2024-03-06T13:42:55;98652.97;;;17.94
78369;BMP280;71113;43.092;-89.268;2024-03-06T13:45:21;98658.41;;;17.98
78369;BMP280;71113;43.092;-89.268;2024-03-06T13:47:47;98668.06;;;18.03
78369;BMP280;71113;43.092;-89.268;2024-03-06T13:50:15;98666.09;;;18.08
78369;BMP280;71113;43.092;-89.268;2024-03-06T13:52:41;98655.59;;;18.17
78369;BMP280;71113;43.092;-89.268;2024-03-06T13:55:08;98658.78;;;18.28